sensor_id;sensor_type;location;lat;lon;timestamp;temperature;humidity
7143;DHT22;3613;48.902;9.204;2022-12-11T00:01:19;-1.50;99.90
7143;DHT22;3613;48.902;9.204;2022-12-11T00:03:48;-1.40;99.90
7143;DHT22;3613;48.902;9.204;2022-12-11T00:06:16;-1.40;99.90
7143;DHT22;3613;48.902;9.204;2022-12-11T00:08:44;-1.40;99.90
7143;DHT22;3613;48.902;9.204;2022-12-11T00:11:12;-1.40;99.90
7143;DHT22;3613;48.902;9.204;2022-12-11T00:13:38;-1.40;99.90
7143;DHT22;3613;48.902;9.204;2022-12-11T00:16:04;-1.40;99.90
7143;DHT22;3613;48.902;9.204;2022-12-11T00:18:29;-1.50;99.90
7143;DHT22;3613;48.902;9.204;2022-12-11T00:21:03;-1.50;99.90
7143;DHT22;3613;48.902;9.204;2022-12-11T00:23:29;-1.40;99.90
7143;DHT22;3613;48.902;9.204;2022-12-11T00:25:56;-2.00;99.90
7143;DHT22;3613;48.902;9.204;2022-12-11T00:28:21;-1.50;99.90
7143;DHT22;3613;48.902;9.204;2022-12-11T00:30:49;-1.50;99.90
7143;DHT22;3613;48.902;9.204;2022-12-11T00:33:15;-1.50;99.90
7143;DHT22;3613;48.902;9.204;2022-12-11T00:35:43;-1.50;99.90
7143;DHT22;3613;48.902;9.204;2022-12-11T00:38:15;-1.50;99.90
7143;DHT22;3613;48.902;9.204;2022-12-11T00:40:43;-1.40;99.90
7143;DHT22;3613;48.902;9.204;2022-12-11T00:43:09;-1.40;99.90
7143;DHT22;3613;48.902;9.204;2022-12-11T00:45:43;-1.30;99.90
7143;DHT22;3613;48.902;9.204;2022-12-11T00:48:11;-1.20;99.90
7143;DHT22;3613;48.902;9.204;2022-12-11T00:50:38;-1.10;99.90
7143;DHT22;3613;48.902;9.204;2022-12-11T00:53:05;-1.10;99.90
7143;DHT22;3613;48.902;9.204;2022-12-11T00:55:38;-1.00;99.90
7143;DHT22;3613;48.902;9.204;2022-12-11T00:58:04;-0.90;99.90
7143;DHT22;3613;48.902;9.204;2022-12-11T01:00:30;-0.90;99.90
7143;DHT22;3613;48.902;9.204;2022-12-11T01:02:56;-0.90;99.90
7143;DHT22;3613;48.902;9.204;2022-12-11T01:05:24;-0.80;99.90
7143;DHT22;3613;48.902;9.204;2022-12-11T01:07:49;-0.80;99.90
7143;DHT22;3613;48.902;9.204;2022-12-11T01:10:15;-0.70;99.90
7143;DHT22;3613;48.902;9.204;2022-12-11T01:15:20;-0.60;99.90
7143;DHT22;3613;48.902;9.204;2022-12-11T01:17:47;-0.60;99.90
7143;DHT22;3613;48.902;9.204;2022-12-11T01:20:14;-0.60;99.90
7143;DHT22;3613;48.902;9.204;2022-12-11T01:22:40;-0.30;99.90
7143;DHT22;3613;48.902;9.204;2022-12-11T01:25:06;-0.50;99.90
7143;DHT22;3613;48.902;9.204;2022-12-11T01:27:31;-0.50;99.90
7143;DHT22;3613;48.902;9.204;2022-12-11T01:29:59;-0.50;99.90
7143;DHT22;3613;48.902;9.204;2022-12-11T01:32:27;-0.50;99.90
7143;DHT22;3613;48.902;9.204;2022-12-11T01:34:53;-0.40;99.90
7143;DHT22;3613;48.902;9.204;2022-12-11T01:37:22;-0.40;99.90
7143;DHT22;3613;48.902;9.204;2022-12-11T01:39:47;-0.50;99.90
7143;DHT22;3613;48.902;9.204;2022-12-11T01:42:22;-0.50;99.90
7143;DHT22;3613;48.902;9.204;2022-12-11T01:47:16;-0.50;99.90
7143;DHT22;3613;48.902;9.204;2022-12-11T01:49:42;-0.50;99.90
7143;DHT22;3613;48.902;9.204;2022-12-11T01:52:15;-0.50;99.90
7143;DHT22;3613;48.902;9.204;2022-12-11T01:54:44;-0.50;99.90
7143;DHT22;3613;48.902;9.204;2022-12-11T01:57:10;-0.50;99.90
7143;DHT22;3613;48.902;9.204;2022-12-11T01:59:40;-0.40;99.90
7143;DHT22;3613;48.902;9.204;2022-12-11T02:04:45;-0.40;99.90
7143;DHT22;3613;48.902;9.204;2022-12-11T02:07:11;-0.30;99.90
7143;DHT22;3613;48.902;9.204;2022-12-11T02:09:40;-0.30;99.90
7143;DHT22;3613;48.902;9.204;2022-12-11T02:14:48;-0.30;99.90
7143;DHT22;3613;48.902;9.204;2022-12-11T02:20:03;-0.30;99.90
7143;DHT22;3613;48.902;9.204;2022-12-11T02:22:57;-0.30;99.90
7143;DHT22;3613;48.902;9.204;2022-12-11T02:31:14;-0.20;99.90
7143;DHT22;3613;48.902;9.204;2022-12-11T02:36:30;-0.10;99.90
7143;DHT22;3613;48.902;9.204;2022-12-11T02:38:58;-0.10;99.90
7143;DHT22;3613;48.902;9.204;2022-12-11T02:41:27;-0.10;99.90
7143;DHT22;3613;48.902;9.204;2022-12-11T02:43:55;-0.10;99.90
7143;DHT22;3613;48.902;9.204;2022-12-11T02:46:23;-0.10;99.90
7143;DHT22;3613;48.902;9.204;2022-12-11T02:48:50;-0.10;99.90
7143;DHT22;3613;48.902;9.204;2022-12-11T02:51:24;-0.10;99.90
7143;DHT22;3613;48.902;9.204;2022-12-11T02:53:53;-0.10;99.90
7143;DHT22;3613;48.902;9.204;2022-12-11T02:56:26;0.00;99.90
7143;DHT22;3613;48.902;9.204;2022-12-11T02:59:03;0.00;99.90
7143;DHT22;3613;48.902;9.204;2022-12-11T03:01:33;0.10;99.90
7143;DHT22;3613;48.902;9.204;2022-12-11T03:03:59;0.10;99.90
7143;DHT22;3613;48.902;9.204;2022-12-11T03:06:31;0.00;99.90
7143;DHT22;3613;48.902;9.204;2022-12-11T03:09:00;0.00;99.90
7143;DHT22;3613;48.902;9.204;2022-12-11T03:11:29;-0.10;99.90
7143;DHT22;3613;48.902;9.204;2022-12-11T03:13:55;0.00;99.90
7143;DHT22;3613;48.902;9.204;2022-12-11T03:16:39;0.00;99.90
7143;DHT22;3613;48.902;9.204;2022-12-11T03:21:45;0.10;99.90
7143;DHT22;3613;48.902;9.204;2022-12-11T03:24:22;0.00;99.90
7143;DHT22;3613;48.902;9.204;2022-12-11T03:26:58;0.00;99.90
7143;DHT22;3613;48.902;9.204;2022-12-11T03:29:32;0.00;99.90
7143;DHT22;3613;48.902;9.204;2022-12-11T03:32:07;0.00;99.90
7143;DHT22;3613;48.902;9.204;2022-12-11T03:34:46;0.00;99.90
7143;DHT22;3613;48.902;9.204;2022-12-11T03:37:18;0.00;99.90
7143;DHT22;3613;48.902;9.204;2022-12-11T03:39:50;0.00;99.90
7143;DHT22;3613;48.902;9.204;2022-12-11T03:42:18;0.10;99.90
7143;DHT22;3613;48.902;9.204;2022-12-11T03:44:47;0.20;99.90
7143;DHT22;3613;48.902;9.204;2022-12-11T03:47:17;0.20;99.90
7143;DHT22;3613;48.902;9.204;2022-12-11T03:49:44;0.00;99.90
7143;DHT22;3613;48.902;9.204;2022-12-11T03:52:12;0.00;99.90
7143;DHT22;3613;48.902;9.204;2022-12-11T03:54:40;-0.10;99.90
7143;DHT22;3613;48.902;9.204;2022-12-11T03:57:09;1.60;99.90
7143;DHT22;3613;48.902;9.204;2022-12-11T03:59:38;-0.10;99.90
7143;DHT22;3613;48.902;9.204;2022-12-11T04:02:04;-0.10;99.90
7143;DHT22;3613;48.902;9.204;2022-12-11T04:04:36;-0.10;99.90
7143;DHT22;3613;48.902;9.204;2022-12-11T04:07:04;-0.20;99.90
7143;DHT22;3613;48.902;9.204;2022-12-11T04:09:30;-0.20;99.90
7143;DHT22;3613;48.902;9.204;2022-12-11T04:11:55;-0.30;99.90
7143;DHT22;3613;48.902;9.204;2022-12-11T04:14:23;-0.30;99.90
7143;DHT22;3613;48.902;9.204;2022-12-11T04:17:10;-0.30;99.90
7143;DHT22;3613;48.902;9.204;2022-12-11T04:19:35;-0.30;99.90
7143;DHT22;3613;48.902;9.204;2022-12-11T04:22:24;-0.30;99.90
7143;DHT22;3613;48.902;9.204;2022-12-11T04:25:08;-0.30;99.90
7143;DHT22;3613;48.902;9.204;2022-12-11T04:27:36;-0.30;99.90
7143;DHT22;3613;48.902;9.204;2022-12-11T04:30:20;-0.30;99.90
7143;DHT22;3613;48.902;9.204;2022-12-11T04:32:46;-0.40;99.90
7143;DHT22;3613;48.902;9.204;2022-12-11T04:35:16;-0.50;99.90
7143;DHT22;3613;48.902;9.204;2022-12-11T04:37:42;-0.60;99.90
7143;DHT22;3613;48.902;9.204;2022-12-11T04:40:13;-0.70;99.90
7143;DHT22;3613;48.902;9.204;2022-12-11T04:42:39;-0.70;99.90
7143;DHT22;3613;48.902;9.204;2022-12-11T04:45:05;-0.70;99.90
7143;DHT22;3613;48.902;9.204;2022-12-11T04:47:34;-0.70;99.90
7143;DHT22;3613;48.902;9.204;2022-12-11T04:49:59;-0.70;99.90
7143;DHT22;3613;48.902;9.204;2022-12-11T04:52:27;-0.70;99.90
7143;DHT22;3613;48.902;9.204;2022-12-11T04:54:55;-0.70;99.90
7143;DHT22;3613;48.902;9.204;2022-12-11T04:57:21;-0.70;99.90
7143;DHT22;3613;48.902;9.204;2022-12-11T04:59:47;-0.70;99.90
7143;DHT22;3613;48.902;9.204;2022-12-11T05:02:15;-0.60;99.90
7143;DHT22;3613;48.902;9.204;2022-12-11T05:04:41;-0.60;99.90
7143;DHT22;3613;48.902;9.204;2022-12-11T05:07:12;-0.80;99.90
7143;DHT22;3613;48.902;9.204;2022-12-11T05:09:43;-0.90;99.90
7143;DHT22;3613;48.902;9.204;2022-12-11T05:12:09;-0.50;99.90
7143;DHT22;3613;48.902;9.204;2022-12-11T05:14:34;-0.80;99.90
7143;DHT22;3613;48.902;9.204;2022-12-11T05:17:02;-1.20;99.90
7143;DHT22;3613;48.902;9.204;2022-12-11T05:19:28;-1.30;99.90
7143;DHT22;3613;48.902;9.204;2022-12-11T05:21:53;-1.30;99.90
7143;DHT22;3613;48.902;9.204;2022-12-11T05:24:19;-1.40;99.90
7143;DHT22;3613;48.902;9.204;2022-12-11T05:26:47;-1.40;99.90
7143;DHT22;3613;48.902;9.204;2022-12-11T05:29:15;-1.50;99.90
7143;DHT22;3613;48.902;9.204;2022-12-11T05:31:43;-0.40;99.90
7143;DHT22;3613;48.902;9.204;2022-12-11T05:34:09;-1.60;99.90
7143;DHT22;3613;48.902;9.204;2022-12-11T05:36:34;-1.60;99.90
7143;DHT22;3613;48.902;9.204;2022-12-11T05:39:03;-1.70;99.90
7143;DHT22;3613;48.902;9.204;2022-12-11T05:41:30;-1.80;99.90
7143;DHT22;3613;48.902;9.204;2022-12-11T05:43:56;-1.90;99.90
7143;DHT22;3613;48.902;9.204;2022-12-11T05:46:25;-2.00;99.90
7143;DHT22;3613;48.902;9.204;2022-12-11T05:48:54;-2.10;99.90
7143;DHT22;3613;48.902;9.204;2022-12-11T05:51:20;-2.00;99.90
7143;DHT22;3613;48.902;9.204;2022-12-11T05:53:50;-2.00;99.90
7143;DHT22;3613;48.902;9.204;2022-12-11T05:56:19;-2.10;99.90
7143;DHT22;3613;48.902;9.204;2022-12-11T05:58:48;-2.10;99.90
7143;DHT22;3613;48.902;9.204;2022-12-11T06:03:54;-2.10;99.90
7143;DHT22;3613;48.902;9.204;2022-12-11T06:06:20;-2.10;99.90
7143;DHT22;3613;48.902;9.204;2022-12-11T06:08:49;-2.20;99.90
7143;DHT22;3613;48.902;9.204;2022-12-11T06:11:15;-2.30;99.90
7143;DHT22;3613;48.902;9.204;2022-12-11T06:13:42;-2.30;99.90
7143;DHT22;3613;48.902;9.204;2022-12-11T06:16:11;-2.40;99.90
7143;DHT22;3613;48.902;9.204;2022-12-11T06:18:41;-2.40;99.90
7143;DHT22;3613;48.902;9.204;2022-12-11T06:21:26;-2.50;99.90
7143;DHT22;3613;48.902;9.204;2022-12-11T06:23:55;-2.50;99.90
7143;DHT22;3613;48.902;9.204;2022-12-11T06:26:25;-2.50;99.90
7143;DHT22;3613;48.902;9.204;2022-12-11T06:28:51;-2.50;99.90
7143;DHT22;3613;48.902;9.204;2022-12-11T06:31:17;-2.50;99.90
7143;DHT22;3613;48.902;9.204;2022-12-11T06:33:45;-2.50;99.90
7143;DHT22;3613;48.902;9.204;2022-12-11T06:36:14;-2.50;99.90
7143;DHT22;3613;48.902;9.204;2022-12-11T06:38:42;-2.40;99.90
7143;DHT22;3613;48.902;9.204;2022-12-11T06:41:11;-2.30;99.90
7143;DHT22;3613;48.902;9.204;2022-12-11T06:43:38;-2.20;99.90
7143;DHT22;3613;48.902;9.204;2022-12-11T06:46:15;-2.10;99.90
7143;DHT22;3613;48.902;9.204;2022-12-11T06:48:42;-2.00;99.90
7143;DHT22;3613;48.902;9.204;2022-12-11T06:51:13;-2.00;99.90
7143;DHT22;3613;48.902;9.204;2022-12-11T06:53:39;-2.00;99.90
7143;DHT22;3613;48.902;9.204;2022-12-11T06:56:07;-1.90;99.90
7143;DHT22;3613;48.902;9.204;2022-12-11T06:58:34;-1.80;99.90
7143;DHT22;3613;48.902;9.204;2022-12-11T07:01:01;-1.60;99.90
7143;DHT22;3613;48.902;9.204;2022-12-11T07:03:27;-1.50;99.90
7143;DHT22;3613;48.902;9.204;2022-12-11T07:05:53;-1.40;99.90
7143;DHT22;3613;48.902;9.204;2022-12-11T07:08:19;-1.30;99.90
7143;DHT22;3613;48.902;9.204;2022-12-11T07:10:47;-1.20;99.90
7143;DHT22;3613;48.902;9.204;2022-12-11T07:13:15;-1.20;99.90
7143;DHT22;3613;48.902;9.204;2022-12-11T07:15:40;-1.10;99.90
7143;DHT22;3613;48.902;9.204;2022-12-11T07:18:06;-1.00;99.90
7143;DHT22;3613;48.902;9.204;2022-12-11T07:20:31;-1.00;99.90
7143;DHT22;3613;48.902;9.204;2022-12-11T07:22:57;-0.90;99.90
7143;DHT22;3613;48.902;9.204;2022-12-11T07:25:23;-0.90;99.90
7143;DHT22;3613;48.902;9.204;2022-12-11T07:27:48;-0.90;99.90
7143;DHT22;3613;48.902;9.204;2022-12-11T07:30:16;-0.90;99.90
7143;DHT22;3613;48.902;9.204;2022-12-11T07:32:41;-0.80;99.90
7143;DHT22;3613;48.902;9.204;2022-12-11T07:37:33;-0.60;99.90
7143;DHT22;3613;48.902;9.204;2022-12-11T07:39:59;-0.50;99.90
7143;DHT22;3613;48.902;9.204;2022-12-11T07:42:24;-0.50;99.90
7143;DHT22;3613;48.902;9.204;2022-12-11T07:44:50;-0.40;99.90
7143;DHT22;3613;48.902;9.204;2022-12-11T07:49:42;-0.30;99.90
7143;DHT22;3613;48.902;9.204;2022-12-11T07:52:07;-0.30;99.90
7143;DHT22;3613;48.902;9.204;2022-12-11T07:54:33;-0.30;99.90
7143;DHT22;3613;48.902;9.204;2022-12-11T07:56:58;-0.30;99.90
7143;DHT22;3613;48.902;9.204;2022-12-11T07:59:29;-0.30;99.90
7143;DHT22;3613;48.902;9.204;2022-12-11T08:04:20;-0.30;99.90
7143;DHT22;3613;48.902;9.204;2022-12-11T08:06:46;-0.40;99.90
7143;DHT22;3613;48.902;9.204;2022-12-11T08:09:12;-0.40;99.90
7143;DHT22;3613;48.902;9.204;2022-12-11T08:14:07;-0.40;99.90
7143;DHT22;3613;48.902;9.204;2022-12-11T08:16:33;-0.50;99.90
7143;DHT22;3613;48.902;9.204;2022-12-11T08:18:59;-0.50;99.90
7143;DHT22;3613;48.902;9.204;2022-12-11T08:21:26;-0.50;99.90
7143;DHT22;3613;48.902;9.204;2022-12-11T08:23:53;-0.50;99.90
7143;DHT22;3613;48.902;9.204;2022-12-11T08:26:25;-0.40;99.90
7143;DHT22;3613;48.902;9.204;2022-12-11T08:28:51;-0.30;99.90
7143;DHT22;3613;48.902;9.204;2022-12-11T08:31:18;-0.30;99.90
7143;DHT22;3613;48.902;9.204;2022-12-11T08:33:44;-0.20;99.90
7143;DHT22;3613;48.902;9.204;2022-12-11T08:36:15;0.00;99.90
7143;DHT22;3613;48.902;9.204;2022-12-11T08:38:41;0.10;99.90
7143;DHT22;3613;48.902;9.204;2022-12-11T08:41:27;0.10;99.90
7143;DHT22;3613;48.902;9.204;2022-12-11T08:43:55;0.30;99.90
7143;DHT22;3613;48.902;9.204;2022-12-11T08:46:26;0.30;99.90
7143;DHT22;3613;48.902;9.204;2022-12-11T08:48:54;0.40;99.90
7143;DHT22;3613;48.902;9.204;2022-12-11T08:51:22;0.60;99.90
7143;DHT22;3613;48.902;9.204;2022-12-11T08:53:48;0.70;99.90
7143;DHT22;3613;48.902;9.204;2022-12-11T08:56:15;0.80;99.90
7143;DHT22;3613;48.902;9.204;2022-12-11T08:58:44;0.80;99.90
7143;DHT22;3613;48.902;9.204;2022-12-11T09:03:37;0.70;99.90
7143;DHT22;3613;48.902;9.204;2022-12-11T09:06:07;0.90;99.90
7143;DHT22;3613;48.902;9.204;2022-12-11T09:08:38;0.90;99.90
7143;DHT22;3613;48.902;9.204;2022-12-11T09:11:06;1.00;99.90
7143;DHT22;3613;48.902;9.204;2022-12-11T09:13:35;1.00;99.90
7143;DHT22;3613;48.902;9.204;2022-12-11T09:16:03;1.10;99.90
7143;DHT22;3613;48.902;9.204;2022-12-11T09:18:29;1.20;99.90
7143;DHT22;3613;48.902;9.204;2022-12-11T09:21:00;1.20;99.90
7143;DHT22;3613;48.902;9.204;2022-12-11T09:23:26;1.20;99.90
7143;DHT22;3613;48.902;9.204;2022-12-11T09:25:51;1.30;99.90
7143;DHT22;3613;48.902;9.204;2022-12-11T09:28:20;1.30;99.90
7143;DHT22;3613;48.902;9.204;2022-12-11T09:30:45;1.30;99.90
7143;DHT22;3613;48.902;9.204;2022-12-11T09:33:13;1.30;99.90
7143;DHT22;3613;48.902;9.204;2022-12-11T09:35:41;1.30;99.90
7143;DHT22;3613;48.902;9.204;2022-12-11T09:38:07;1.20;99.90
7143;DHT22;3613;48.902;9.204;2022-12-11T09:40:38;1.20;99.90
7143;DHT22;3613;48.902;9.204;2022-12-11T09:43:16;1.00;99.90
7143;DHT22;3613;48.902;9.204;2022-12-11T09:45:44;0.80;99.90
7143;DHT22;3613;48.902;9.204;2022-12-11T09:48:10;0.70;99.90
7143;DHT22;3613;48.902;9.204;2022-12-11T09:50:38;0.80;99.90
7143;DHT22;3613;48.902;9.204;2022-12-11T09:53:06;0.80;99.90
7143;DHT22;3613;48.902;9.204;2022-12-11T10:08:13;0.90;99.90
7143;DHT22;3613;48.902;9.204;2022-12-11T10:10:41;0.80;99.90
7143;DHT22;3613;48.902;9.204;2022-12-11T10:16:04;1.00;99.90
7143;DHT22;3613;48.902;9.204;2022-12-11T10:18:35;1.10;99.90
7143;DHT22;3613;48.902;9.204;2022-12-11T10:21:02;1.20;99.90
7143;DHT22;3613;48.902;9.204;2022-12-11T10:23:43;1.30;99.90
7143;DHT22;3613;48.902;9.204;2022-12-11T10:26:16;1.20;99.90
7143;DHT22;3613;48.902;9.204;2022-12-11T10:28:42;1.20;99.90
7143;DHT22;3613;48.902;9.204;2022-12-11T10:36:25;1.30;99.90
7143;DHT22;3613;48.902;9.204;2022-12-11T10:38:51;1.30;99.90
7143;DHT22;3613;48.902;9.204;2022-12-11T10:41:18;1.40;99.90
7143;DHT22;3613;48.902;9.204;2022-12-11T10:43:50;1.40;99.90
7143;DHT22;3613;48.902;9.204;2022-12-11T10:46:21;1.60;99.90
7143;DHT22;3613;48.902;9.204;2022-12-11T10:48:51;1.60;99.90
7143;DHT22;3613;48.902;9.204;2022-12-11T10:51:19;1.60;99.90
7143;DHT22;3613;48.902;9.204;2022-12-11T10:53:52;3.10;99.90
7143;DHT22;3613;48.902;9.204;2022-12-11T10:56:31;2.00;99.90
7143;DHT22;3613;48.902;9.204;2022-12-11T10:58:58;2.10;99.90
7143;DHT22;3613;48.902;9.204;2022-12-11T11:01:28;2.10;99.90
7143;DHT22;3613;48.902;9.204;2022-12-11T11:04:05;2.20;99.90
7143;DHT22;3613;48.902;9.204;2022-12-11T11:06:32;2.30;99.90
7143;DHT22;3613;48.902;9.204;2022-12-11T11:08:59;4.70;99.90
7143;DHT22;3613;48.902;9.204;2022-12-11T11:11:36;2.40;99.90
7143;DHT22;3613;48.902;9.204;2022-12-11T11:14:18;2.40;99.90
7143;DHT22;3613;48.902;9.204;2022-12-11T11:16:46;2.30;99.90
7143;DHT22;3613;48.902;9.204;2022-12-11T11:19:26;2.30;99.90
7143;DHT22;3613;48.902;9.204;2022-12-11T11:22:15;2.20;99.90
7143;DHT22;3613;48.902;9.204;2022-12-11T11:24:56;2.20;99.90
7143;DHT22;3613;48.902;9.204;2022-12-11T11:27:35;2.30;99.90
7143;DHT22;3613;48.902;9.204;2022-12-11T11:30:05;2.30;99.90
7143;DHT22;3613;48.902;9.204;2022-12-11T11:32:37;2.40;99.90
7143;DHT22;3613;48.902;9.204;2022-12-11T11:37:44;2.50;99.90
7143;DHT22;3613;48.902;9.204;2022-12-11T11:40:27;2.40;99.90
7143;DHT22;3613;48.902;9.204;2022-12-11T11:46:02;2.30;99.90
7143;DHT22;3613;48.902;9.204;2022-12-11T11:51:34;2.30;99.90
7143;DHT22;3613;48.902;9.204;2022-12-11T11:54:06;2.30;99.90
7143;DHT22;3613;48.902;9.204;2022-12-11T11:56:36;1.60;99.90
7143;DHT22;3613;48.902;9.204;2022-12-11T12:01:41;1.60;99.90
7143;DHT22;3613;48.902;9.204;2022-12-11T12:04:08;1.60;99.90
7143;DHT22;3613;48.902;9.204;2022-12-11T12:06:49;1.50;99.90
7143;DHT22;3613;48.902;9.204;2022-12-11T12:15:42;2.20;99.90
7143;DHT22;3613;48.902;9.204;2022-12-11T12:18:19;1.80;99.90
7143;DHT22;3613;48.902;9.204;2022-12-11T12:23:57;1.40;99.90
7143;DHT22;3613;48.902;9.204;2022-12-11T12:26:32;1.40;99.90
7143;DHT22;3613;48.902;9.204;2022-12-11T12:37:01;1.30;99.90
7143;DHT22;3613;48.902;9.204;2022-12-11T12:47:38;1.20;99.90
7143;DHT22;3613;48.902;9.204;2022-12-11T12:50:11;1.30;99.90
7143;DHT22;3613;48.902;9.204;2022-12-11T12:52:43;1.40;99.90
7143;DHT22;3613;48.902;9.204;2022-12-11T12:58:01;1.60;99.90
7143;DHT22;3613;48.902;9.204;2022-12-11T13:00:36;1.50;99.90
7143;DHT22;3613;48.902;9.204;2022-12-11T13:05:41;1.30;99.90
7143;DHT22;3613;48.902;9.204;2022-12-11T13:08:08;1.40;99.90
7143;DHT22;3613;48.902;9.204;2022-12-11T13:10:37;1.40;99.90
7143;DHT22;3613;48.902;9.204;2022-12-11T13:13:24;1.60;99.90
7143;DHT22;3613;48.902;9.204;2022-12-11T13:15:50;1.50;99.90
7143;DHT22;3613;48.902;9.204;2022-12-11T13:18:38;1.60;99.90
7143;DHT22;3613;48.902;9.204;2022-12-11T13:24:23;1.50;99.90
7143;DHT22;3613;48.902;9.204;2022-12-11T13:26:50;1.30;99.90
7143;DHT22;3613;48.902;9.204;2022-12-11T13:29:36;1.10;99.90
7143;DHT22;3613;48.902;9.204;2022-12-11T13:34:39;1.30;99.90
7143;DHT22;3613;48.902;9.204;2022-12-11T13:37:23;1.30;99.90
7143;DHT22;3613;48.902;9.204;2022-12-11T13:39:51;1.40;99.90
7143;DHT22;3613;48.902;9.204;2022-12-11T13:42:50;1.40;99.90
7143;DHT22;3613;48.902;9.204;2022-12-11T13:45:22;1.40;99.90
7143;DHT22;3613;48.902;9.204;2022-12-11T13:47:50;1.40;99.90
7143;DHT22;3613;48.902;9.204;2022-12-11T13:50:28;1.50;99.90
7143;DHT22;3613;48.902;9.204;2022-12-11T13:52:56;1.40;99.90
7143;DHT22;3613;48.902;9.204;2022-12-11T13:55:26;1.40;99.90
7143;DHT22;3613;48.902;9.204;2022-12-11T13:57:52;1.30;99.90
7143;DHT22;3613;48.902;9.204;2022-12-11T14:00:29;1.10;99.90
7143;DHT22;3613;48.902;9.204;2022-12-11T14:03:00;1.00;99.90
7143;DHT22;3613;48.902;9.204;2022-12-11T14:05:29;1.00;99.90
7143;DHT22;3613;48.902;9.204;2022-12-11T14:07:57;1.10;99.90
7143;DHT22;3613;48.902;9.204;2022-12-11T14:10:26;1.20;99.90
7143;DHT22;3613;48.902;9.204;2022-12-11T14:15:24;1.20;99.90
7143;DHT22;3613;48.902;9.204;2022-12-11T14:17:51;1.20;99.90
7143;DHT22;3613;48.902;9.204;2022-12-11T14:20:23;1.40;99.90
7143;DHT22;3613;48.902;9.204;2022-12-11T14:25:22;1.20;99.90
7143;DHT22;3613;48.902;9.204;2022-12-11T14:27:51;1.00;99.90
7143;DHT22;3613;48.902;9.204;2022-12-11T14:30:26;0.90;99.90
7143;DHT22;3613;48.902;9.204;2022-12-11T14:32:56;0.70;99.90
7143;DHT22;3613;48.902;9.204;2022-12-11T14:35:27;0.70;99.90
7143;DHT22;3613;48.902;9.204;2022-12-11T14:37:58;0.70;99.90
7143;DHT22;3613;48.902;9.204;2022-12-11T14:40:29;0.60;99.90
7143;DHT22;3613;48.902;9.204;2022-12-11T14:42:58;0.50;99.90
7143;DHT22;3613;48.902;9.204;2022-12-11T14:45:46;0.50;99.90
7143;DHT22;3613;48.902;9.204;2022-12-11T14:48:26;0.50;99.90
7143;DHT22;3613;48.902;9.204;2022-12-11T14:50:55;0.50;99.90
7143;DHT22;3613;48.902;9.204;2022-12-11T14:53:26;0.30;99.90
7143;DHT22;3613;48.902;9.204;2022-12-11T14:55:53;0.20;99.90
7143;DHT22;3613;48.902;9.204;2022-12-11T14:58:23;0.10;99.90
7143;DHT22;3613;48.902;9.204;2022-12-11T15:01:00;0.10;99.90
7143;DHT22;3613;48.902;9.204;2022-12-11T15:03:41;0.10;99.90
7143;DHT22;3613;48.902;9.204;2022-12-11T15:06:27;0.00;99.90
7143;DHT22;3613;48.902;9.204;2022-12-11T15:08:53;0.00;99.90
7143;DHT22;3613;48.902;9.204;2022-12-11T15:11:30;-0.10;99.90
7143;DHT22;3613;48.902;9.204;2022-12-11T15:13:56;-0.10;99.90
7143;DHT22;3613;48.902;9.204;2022-12-11T15:16:25;-0.20;99.90
7143;DHT22;3613;48.902;9.204;2022-12-11T15:18:56;-0.20;99.90
7143;DHT22;3613;48.902;9.204;2022-12-11T15:21:31;-0.20;99.90
7143;DHT22;3613;48.902;9.204;2022-12-11T15:24:02;-0.20;99.90
7143;DHT22;3613;48.902;9.204;2022-12-11T15:26:43;-0.20;99.90
7143;DHT22;3613;48.902;9.204;2022-12-11T15:29:44;-0.30;99.90
7143;DHT22;3613;48.902;9.204;2022-12-11T15:37:24;-0.30;99.90
7143;DHT22;3613;48.902;9.204;2022-12-11T15:39:51;-0.30;99.90
7143;DHT22;3613;48.902;9.204;2022-12-11T15:42:39;-0.30;99.90
7143;DHT22;3613;48.902;9.204;2022-12-11T15:45:08;-0.40;99.90
7143;DHT22;3613;48.902;9.204;2022-12-11T15:47:38;-0.50;99.90
7143;DHT22;3613;48.902;9.204;2022-12-11T15:50:24;-0.50;99.90
7143;DHT22;3613;48.902;9.204;2022-12-11T15:52:54;-0.60;99.90
7143;DHT22;3613;48.902;9.204;2022-12-11T15:55:21;-0.70;99.90
7143;DHT22;3613;48.902;9.204;2022-12-11T16:00:14;-0.70;99.90
7143;DHT22;3613;48.902;9.204;2022-12-11T16:02:43;-0.70;99.90
7143;DHT22;3613;48.902;9.204;2022-12-11T16:07:37;-0.60;99.90
7143;DHT22;3613;48.902;9.204;2022-12-11T16:10:11;-0.50;99.90
7143;DHT22;3613;48.902;9.204;2022-12-11T16:12:40;-0.60;99.90
7143;DHT22;3613;48.902;9.204;2022-12-11T16:15:07;-0.60;99.90
7143;DHT22;3613;48.902;9.204;2022-12-11T16:19:59;-0.60;99.90
7143;DHT22;3613;48.902;9.204;2022-12-11T16:24:54;-0.70;99.90
7143;DHT22;3613;48.902;9.204;2022-12-11T16:27:21;-0.70;99.90
7143;DHT22;3613;48.902;9.204;2022-12-11T16:29:46;-0.70;99.90
7143;DHT22;3613;48.902;9.204;2022-12-11T16:32:17;-0.50;99.90
7143;DHT22;3613;48.902;9.204;2022-12-11T16:34:43;-0.50;99.90
7143;DHT22;3613;48.902;9.204;2022-12-11T16:37:12;-0.40;99.90
7143;DHT22;3613;48.902;9.204;2022-12-11T16:42:06;-0.60;99.90
7143;DHT22;3613;48.902;9.204;2022-12-11T16:44:32;-0.50;99.90
7143;DHT22;3613;48.902;9.204;2022-12-11T16:47:00;-0.60;99.90
7143;DHT22;3613;48.902;9.204;2022-12-11T16:51:54;-0.60;99.90
7143;DHT22;3613;48.902;9.204;2022-12-11T16:54:20;-0.60;99.90
7143;DHT22;3613;48.902;9.204;2022-12-11T16:59:14;-0.50;99.90
7143;DHT22;3613;48.902;9.204;2022-12-11T17:01:42;-0.40;99.90
7143;DHT22;3613;48.902;9.204;2022-12-11T17:04:11;-0.40;99.90
7143;DHT22;3613;48.902;9.204;2022-12-11T17:06:37;-0.30;99.90
7143;DHT22;3613;48.902;9.204;2022-12-11T17:09:02;-0.30;99.90
7143;DHT22;3613;48.902;9.204;2022-12-11T17:11:28;-0.30;99.90
7143;DHT22;3613;48.902;9.204;2022-12-11T17:13:55;-0.20;99.90
7143;DHT22;3613;48.902;9.204;2022-12-11T17:16:25;-0.10;99.90
7143;DHT22;3613;48.902;9.204;2022-12-11T17:18:54;0.00;99.90
7143;DHT22;3613;48.902;9.204;2022-12-11T17:21:21;0.00;99.90
7143;DHT22;3613;48.902;9.204;2022-12-11T17:23:47;0.00;99.90
7143;DHT22;3613;48.902;9.204;2022-12-11T17:26:15;0.00;99.90
7143;DHT22;3613;48.902;9.204;2022-12-11T17:28:41;0.00;99.90
7143;DHT22;3613;48.902;9.204;2022-12-11T17:31:12;-0.10;99.90
7143;DHT22;3613;48.902;9.204;2022-12-11T17:36:06;-0.30;99.90
7143;DHT22;3613;48.902;9.204;2022-12-11T17:38:32;-0.50;99.90
7143;DHT22;3613;48.902;9.204;2022-12-11T17:43:24;-0.70;99.90
7143;DHT22;3613;48.902;9.204;2022-12-11T17:45:50;-0.80;99.90
7143;DHT22;3613;48.902;9.204;2022-12-11T17:48:20;-0.90;99.90
7143;DHT22;3613;48.902;9.204;2022-12-11T17:50:50;-1.00;99.90
7143;DHT22;3613;48.902;9.204;2022-12-11T17:53:18;-1.00;99.90
7143;DHT22;3613;48.902;9.204;2022-12-11T17:55:44;-1.10;99.90
7143;DHT22;3613;48.902;9.204;2022-12-11T17:58:11;-1.20;99.90
7143;DHT22;3613;48.902;9.204;2022-12-11T18:00:38;-1.30;99.90
7143;DHT22;3613;48.902;9.204;2022-12-11T18:03:07;-1.40;99.90
7143;DHT22;3613;48.902;9.204;2022-12-11T18:05:42;-1.30;99.90
7143;DHT22;3613;48.902;9.204;2022-12-11T18:10:39;-1.40;99.90
7143;DHT22;3613;48.902;9.204;2022-12-11T18:22:52;-1.30;99.90
7143;DHT22;3613;48.902;9.204;2022-12-11T18:25:19;-1.20;99.90
7143;DHT22;3613;48.902;9.204;2022-12-11T18:27:47;-1.00;99.90
7143;DHT22;3613;48.902;9.204;2022-12-11T18:32:40;-0.90;99.90
7143;DHT22;3613;48.902;9.204;2022-12-11T18:35:06;-0.80;99.90
7143;DHT22;3613;48.902;9.204;2022-12-11T18:42:26;-0.60;99.90
7143;DHT22;3613;48.902;9.204;2022-12-11T18:47:18;-0.60;99.90
7143;DHT22;3613;48.902;9.204;2022-12-11T18:49:48;-0.60;99.90
7143;DHT22;3613;48.902;9.204;2022-12-11T18:54:40;-0.60;99.90
7143;DHT22;3613;48.902;9.204;2022-12-11T18:57:08;-0.70;99.90
7143;DHT22;3613;48.902;9.204;2022-12-11T19:02:02;-0.60;99.90
7143;DHT22;3613;48.902;9.204;2022-12-11T19:04:28;-0.60;99.90
7143;DHT22;3613;48.902;9.204;2022-12-11T19:06:58;-0.70;99.90
7143;DHT22;3613;48.902;9.204;2022-12-11T19:09:24;-0.80;99.90